Time;durP1;ratioP1;P1;durP2;ratioP2;P2;SDS_P1;SDS_P2;PMS_P1;PMS_P2;Temp;Humidity;BMP_temperature;BMP_pressure;BME280_temperature;BME280_humidity;BME280_pressure;Samples;Min_cycle;Max_cycle;Signal;HPM_P1;HPM_P2
2023/03/25 00:00:27;;;;;;;;;;;;;;;23.87;50.38;96525.02;592086;238;66611;-61
2023/03/25 00:02:55;;;;;;;;;;;;;;;23.86;49.27;96518.87;592954;239;68953;-61
2023/03/25 00:05:23;;;;;;;;;;;;;;;23.86;49.69;96518.08;593202;239;65034;-61
2023/03/25 00:07:52;;;;;;;;;;;;;;;23.86;49.51;96512.72;593179;239;68759;-61
2023/03/25 00:10:19;;;;;;;;;;;;;;;23.84;49.11;96515.69;593191;239;68490;-61
2023/03/25 00:12:47;;;;;;;;;;;;;;;23.84;51.23;96515.69;593212;239;63132;-61
2023/03/25 00:15:15;;;;;;;;;;;;;;;23.84;48.79;96520.27;593212;239;66625;-61
2023/03/25 00:17:42;;;;;;;;;;;;;;;23.81;49.04;96518.98;593204;239;69025;-61
2023/03/25 00:20:10;;;;;;;;;;;;;;;23.81;49.08;96516.29;593200;239;65146;-61
2023/03/25 00:22:43;;;;;;;;;;;;;;;23.81;49.21;96516.29;593023;239;68881;-61
2023/03/25 00:25:09;;;;;;;;;;;;;;;23.81;50.28;96515.50;593049;238;68807;-61
2023/03/25 00:27:37;;;;;;;;;;;;;;;23.80;50.60;96513.92;593072;237;65145;-61
2023/03/25 00:30:05;;;;;;;;;;;;;;;23.81;50.19;96507.45;593193;239;68836;-63
2023/03/25 00:32:32;;;;;;;;;;;;;;;23.79;49.65;96507.77;593171;239;68723;-63
2023/03/25 00:35:00;;;;;;;;;;;;;;;23.79;51.44;96504.27;593257;239;62668;-63
2023/03/25 00:37:28;;;;;;;;;;;;;;;23.78;49.25;96494.64;593126;239;70311;-63
2023/03/25 00:39:56;;;;;;;;;;;;;;;23.78;48.28;96494.64;593196;239;68893;-63
2023/03/25 00:42:26;;;;;;;;;;;;;;;23.78;51.50;96489.28;593207;237;65508;-63
2023/03/25 00:44:54;;;;;;;;;;;;;;;23.78;50.76;96486.59;594130;238;66848;-60
2023/03/25 00:47:23;;;;;;;;;;;;;;;23.77;49.91;96482.34;594891;238;68887;-60
2023/03/25 00:49:51;;;;;;;;;;;;;;;23.76;49.76;96478.05;594932;238;62934;-60
2023/03/25 00:52:21;;;;;;;;;;;;;;;23.75;50.43;96469.20;594761;238;66694;-60
2023/03/25 00:54:48;;;;;;;;;;;;;;;23.74;49.97;96469.53;594908;238;66589;-60
2023/03/25 00:57:16;;;;;;;;;;;;;;;23.75;50.52;96471.89;594851;238;63013;-60
2023/03/25 00:59:44;;;;;;;;;;;;;;;23.74;50.46;96467.63;594929;238;66752;-60
2023/03/25 01:02:11;;;;;;;;;;;;;;;23.73;50.61;96462.55;594960;238;68648;-60
2023/03/25 01:04:39;;;;;;;;;;;;;;;23.73;49.34;96465.23;594943;238;65110;-60
2023/03/25 01:07:06;;;;;;;;;;;;;;;23.73;51.04;96462.55;594914;238;69008;-60
2023/03/25 01:09:35;;;;;;;;;;;;;;;23.72;49.64;96463.66;594894;238;69338;-60
2023/03/25 01:12:02;;;;;;;;;;;;;;;23.71;49.99;96462.88;594918;238;63040;-60
2023/03/25 01:14:29;;;;;;;;;;;;;;;23.70;50.06;96455.88;594990;238;66780;-60
2023/03/25 01:16:58;;;;;;;;;;;;;;;23.69;50.21;96460.45;594843;238;66527;-60
2023/03/25 01:19:27;;;;;;;;;;;;;;;23.70;50.46;96456.66;594918;237;65129;-61
2023/03/25 01:21:55;;;;;;;;;;;;;;;23.70;51.62;96456.66;594149;238;66135;-61
2023/03/25 01:24:23;;;;;;;;;;;;;;;23.69;51.66;96452.40;592745;239;68174;-61
2023/03/25 01:26:50;;;;;;;;;;;;;;;23.68;50.16;96442.78;594456;238;65092;-61
2023/03/25 01:29:19;;;;;;;;;;;;;;;23.67;49.76;96449.22;594918;238;68722;-61
2023/03/25 01:31:46;;;;;;;;;;;;;;;23.67;51.23;96443.85;594059;238;68500;-60
2023/03/25 01:34:15;;;;;;;;;;;;;;;23.66;48.83;96438.80;593880;238;65088;-60
2023/03/25 01:36:45;;;;;;;;;;;;;;;23.66;49.01;96436.91;594943;238;68482;-60
2023/03/25 01:39:15;;;;;;;;;;;;;;;23.65;50.50;96427.29;594933;238;68472;-60
2023/03/25 01:41:43;;;;;;;;;;;;;;;23.66;51.61;96433.44;594993;238;63876;-61
2023/03/25 01:44:12;;;;;;;;;;;;;;;23.65;51.12;96427.29;594394;238;66231;-61
2023/03/25 01:46:43;;;;;;;;;;;;;;;23.64;51.33;96424.89;593136;239;66613;-61
2023/03/25 01:49:09;;;;;;;;;;;;;;;23.63;50.04;96428.69;593195;239;62878;-61
2023/03/25 01:51:38;;;;;;;;;;;;;;;23.62;50.62;96425.19;593017;239;66369;-61
2023/03/25 01:54:06;;;;;;;;;;;;;;;23.63;50.86;96423.32;593183;239;66652;-61
2023/03/25 01:56:36;;;;;;;;;;;;;;;23.61;51.72;96418.24;593110;239;65433;-61
2023/03/25 01:59:05;;;;;;;;;;;;;;;23.61;50.64;96428.19;593218;239;67309;-61
2023/03/25 02:01:33;;;;;;;;;;;;;;;23.59;50.20;96423.11;593219;239;68837;-60
2023/03/25 02:04:08;;;;;;;;;;;;;;;23.60;50.43;96419.34;593138;239;63035;-60
2023/03/25 02:06:34;;;;;;;;;;;;;;;23.60;50.95;96418.53;593026;239;68874;-60
2023/03/25 02:09:08;;;;;;;;;;;;;;;23.59;51.23;96419.64;593202;239;66704;-60
2023/03/25 02:11:35;;;;;;;;;;;;;;;23.57;49.68;96414.59;593157;239;63829;-60
2023/03/25 02:14:04;;;;;;;;;;;;;;;23.57;50.86;96409.23;593200;239;68773;-60
2023/03/25 02:16:36;;;;;;;;;;;;;;;23.56;48.88;96406.84;593181;239;66644;-60
2023/03/25 02:19:15;;;;;;;;;;;;;;;23.55;50.08;96400.69;593192;239;64935;-60
2023/03/25 02:21:59;;;;;;;;;;;;;;;23.55;48.89;96406.05;592726;239;68847;-60
2023/03/25 02:24:34;;;;;;;;;;;;;;;23.55;52.91;96398.00;591116;239;68809;-60
2023/03/25 02:27:12;;;;;;;;;;;;;;;23.55;52.26;96399.89;593098;238;65917;-60
2023/03/25 02:29:48;;;;;;;;;;;;;;;23.54;50.11;96395.61;592873;239;66403;-60
2023/03/25 02:32:19;;;;;;;;;;;;;;;23.53;50.03;96394.82;592637;239;66501;-60
2023/03/25 02:34:55;;;;;;;;;;;;;;;23.53;50.98;96396.72;592752;239;65013;-61
2023/03/25 02:37:30;;;;;;;;;;;;;;;23.54;50.25;96398.30;592275;239;67170;-62
2023/03/25 02:40:05;;;;;;;;;;;;;;;23.52;50.52;96401.29;593079;238;68522;-60
2023/03/25 02:42:36;;;;;;;;;;;;;;;23.50;49.64;96398.11;592582;239;64777;-60
2023/03/25 02:45:21;;;;;;;;;;;;;;;23.51;52.34;96396.22;592294;238;66613;-60
2023/03/25 02:47:50;;;;;;;;;;;;;;;23.50;50.19;96408.84;594915;238;67569;-61
2023/03/25 02:50:20;;;;;;;;;;;;;;;23.49;52.03;96394.64;594921;238;65667;-61
2023/03/25 02:52:49;;;;;;;;;;;;;;;23.49;51.12;96391.95;594647;238;68828;-61
2023/03/25 02:55:17;;;;;;;;;;;;;;;23.48;51.35;96389.56;594920;238;66660;-60
2023/03/25 02:57:47;;;;;;;;;;;;;;;23.47;48.64;96398.72;594893;238;65249;-60
2023/03/25 03:00:15;;;;;;;;;;;;;;;23.46;49.25;96397.11;594937;238;68771;-61
2023/03/25 03:02:52;;;;;;;;;;;;;;;23.46;50.72;96397.93;594891;238;66676;-61
2023/03/25 03:05:24;;;;;;;;;;;;;;;23.46;51.09;96394.43;594821;238;62897;-61
2023/03/25 03:07:53;;;;;;;;;;;;;;;23.45;50.11;96392.85;594923;238;66342;-61
2023/03/25 03:10:22;;;;;;;;;;;;;;;23.45;51.26;96387.49;594966;238;66102;-61
2023/03/25 03:12:52;;;;;;;;;;;;;;;23.45;52.38;96384.81;594535;238;65067;-61
2023/03/25 03:15:39;;;;;;;;;;;;;;;23.44;51.09;96377.88;593653;239;69130;-61
2023/03/25 03:18:11;;;;;;;;;;;;;;;23.43;51.40;96377.05;593525;239;68678;-60
2023/03/25 03:20:40;;;;;;;;;;;;;;;23.42;50.13;96380.84;593721;238;65081;-60
2023/03/25 03:23:09;;;;;;;;;;;;;;;23.42;53.11;96378.16;593708;239;68856;-60
2023/03/25 03:25:38;;;;;;;;;;;;;;;23.42;50.78;96385.42;593770;239;68703;-60
2023/03/25 03:28:07;;;;;;;;;;;;;;;23.42;49.88;96380.05;594535;238;65101;-60
2023/03/25 03:30:48;;;;;;;;;;;;;;;23.41;49.38;96383.84;594987;238;66748;-60
2023/03/25 03:33:24;;;;;;;;;;;;;;;23.41;51.37;96381.16;594957;238;68729;-60
2023/03/25 03:35:56;;;;;;;;;;;;;;;23.40;50.86;96379.55;594953;238;62923;-60
2023/03/25 03:38:25;;;;;;;;;;;;;;;23.40;52.00;96383.02;594828;238;68908;-62
2023/03/25 03:44:35;;;;;;;;;;;;;;;23.38;51.26;96379.87;594873;238;40996;-61
2023/03/25 04:00:14;;;;;;;;;;;;;;;23.33;50.13;96381.88;567648;249;43200;-61
2023/03/25 04:09:33;;;;;;;;;;;;;;;23.31;50.60;96395.56;553323;253;51161;-62
2023/03/25 04:12:08;;;;;;;;;;;;;;;23.30;50.76;96393.98;578906;241;63099;-63
2023/03/25 04:14:39;;;;;;;;;;;;;;;23.29;50.28;96387.02;591482;238;68774;-63
2023/03/25 04:17:07;;;;;;;;;;;;;;;23.28;50.72;96396.17;594333;238;68729;-62
2023/03/25 04:19:34;;;;;;;;;;;;;;;23.30;51.13;96395.85;594357;238;65263;-62
2023/03/25 04:22:03;;;;;;;;;;;;;;;23.28;49.77;96396.17;594351;238;68812;-62
2023/03/25 04:24:30;;;;;;;;;;;;;;;23.28;51.02;96384.66;594283;238;68779;-63
2023/03/25 04:27:02;;;;;;;;;;;;;;;23.29;52.57;96394.28;594404;238;65322;-60
2023/03/25 04:29:27;;;;;;;;;;;;;;;23.29;52.26;96396.95;594279;238;66465;-61
2023/03/25 04:31:56;;;;;;;;;;;;;;;23.29;51.70;96388.91;594184;238;68539;-61
2023/03/25 04:34:25;;;;;;;;;;;;;;;23.29;52.61;96402.32;594343;238;65134;-60
2023/03/25 04:36:53;;;;;;;;;;;;;;;23.29;51.35;96407.68;594300;238;67154;-60
2023/03/25 04:39:24;;;;;;;;;;;;;;;23.27;51.60;96405.28;594320;238;66510;-60
2023/03/25 04:41:52;;;;;;;;;;;;;;;23.26;50.57;96414.44;594228;238;65075;-62
2023/03/25 04:44:22;;;;;;;;;;;;;;;23.26;51.38;96407.18;594348;238;68826;-62
2023/03/25 04:46:49;;;;;;;;;;;;;;;23.26;52.16;96409.07;594323;238;68850;-63
2023/03/25 04:49:20;;;;;;;;;;;;;;;23.25;50.99;96413.65;594319;238;62997;-63
2023/03/25 04:51:50;;;;;;;;;;;;;;;23.26;52.79;96419.80;594298;238;68858;-63
2023/03/25 04:54:18;;;;;;;;;;;;;;;23.24;51.59;96420.11;594371;238;68750;-64
2023/03/25 04:56:49;;;;;;;;;;;;;;;23.24;51.58;96421.97;594324;238;65146;-64
2023/03/25 04:59:18;;;;;;;;;;;;;;;23.22;50.68;96424.97;594321;238;68844;-63
2023/03/25 05:01:46;;;;;;;;;;;;;;;23.22;51.39;96424.97;594283;238;66768;-64
2023/03/25 05:04:16;;;;;;;;;;;;;;;23.22;50.41;96424.19;594828;238;65120;-63
2023/03/25 05:06:45;;;;;;;;;;;;;;;23.21;50.97;96426.05;594920;238;68506;-63
2023/03/25 05:09:15;;;;;;;;;;;;;;;23.22;51.31;96422.30;594835;238;66341;-63
2023/03/25 05:11:43;;;;;;;;;;;;;;;23.22;51.57;96424.19;594904;238;65055;-64
2023/03/25 05:14:11;;;;;;;;;;;;;;;23.20;50.86;96421.79;594785;238;68889;-65
2023/03/25 05:16:39;;;;;;;;;;;;;;;23.21;50.85;96427.94;594863;238;68541;-63
2023/03/25 05:19:09;;;;;;;;;;;;;;;23.20;51.98;96427.15;594876;238;65068;-60
2023/03/25 05:21:37;;;;;;;;;;;;;;;23.19;49.10;96427.44;594910;238;73710;-60
2023/03/25 05:24:07;;;;;;;;;;;;;;;23.19;50.06;96428.25;594751;238;69095;-60
2023/03/25 05:26:35;;;;;;;;;;;;;;;23.19;53.80;96430.12;594892;238;63119;-60
2023/03/25 05:29:04;;;;;;;;;;;;;;;23.18;49.35;96431.22;594944;238;66649;-61
2023/03/25 05:31:31;;;;;;;;;;;;;;;23.17;50.53;96435.80;594895;238;68735;-60
2023/03/25 05:33:59;;;;;;;;;;;;;;;23.16;52.27;96431.53;594948;238;65050;-61
2023/03/25 05:36:26;;;;;;;;;;;;;;;23.16;50.31;96431.53;593110;239;67505;-60
2023/03/25 05:38:54;;;;;;;;;;;;;;;23.16;50.67;96425.36;592569;239;68306;-60
2023/03/25 05:41:31;;;;;;;;;;;;;;;23.17;52.22;96429.64;592691;239;64942;-61
2023/03/25 05:43:51;;;;;;;;;;;;;;;23.14;49.45;96427.56;592374;239;68386;-61
2023/03/25 05:46:19;;;;;;;;;;;;;;;23.14;50.57;96428.35;594533;238;66377;-61
2023/03/25 05:48:46;;;;;;;;;;;;;;;23.13;52.10;96421.38;594982;238;65056;-61
2023/03/25 05:51:16;;;;;;;;;;;;;;;23.13;52.44;96432.11;594931;238;68808;-61
2023/03/25 05:53:48;;;;;;;;;;;;;;;23.14;50.15;96430.25;594904;238;68552;-61
2023/03/25 05:56:13;;;;;;;;;;;;;;;23.13;49.92;96421.38;594939;238;65171;-61
2023/03/25 05:58:41;;;;;;;;;;;;;;;23.13;52.60;96423.28;594873;238;68497;-61
2023/03/25 06:01:10;;;;;;;;;;;;;;;23.12;51.51;96424.38;594972;238;68364;-61
2023/03/25 06:03:37;;;;;;;;;;;;;;;23.13;51.76;96412.55;593567;238;65127;-61
2023/03/25 06:06:05;;;;;;;;;;;;;;;23.11;51.65;96418.23;593246;239;66633;-61
2023/03/25 06:08:34;;;;;;;;;;;;;;;23.10;51.76;96427.34;593138;239;66708;-61
2023/03/25 06:11:04;;;;;;;;;;;;;;;23.11;51.01;96422.78;593147;239;65314;-61
2023/03/25 06:13:32;;;;;;;;;;;;;;;23.10;50.79;96419.31;593147;239;68693;-61
2023/03/25 06:16:02;;;;;;;;;;;;;;;23.09;50.97;96419.63;592869;239;66419;-61
2023/03/25 06:18:29;;;;;;;;;;;;;;;23.09;52.77;96411.58;590549;239;65144;-61
2023/03/25 06:20:57;;;;;;;;;;;;;;;23.07;52.41;96417.23;593153;239;68830;-61
2023/03/25 06:23:25;;;;;;;;;;;;;;;23.08;51.12;96408.11;593034;239;68744;-61
2023/03/25 06:25:53;;;;;;;;;;;;;;;23.07;49.61;96411.08;593226;239;65067;-61
2023/03/25 06:28:22;;;;;;;;;;;;;;;23.07;52.91;96406.51;593211;239;68795;-61
2023/03/25 06:30:50;;;;;;;;;;;;;;;23.07;51.79;96413.77;593205;239;68628;-61
2023/03/25 06:33:23;;;;;;;;;;;;;;;23.07;53.24;96419.91;593090;239;65973;-61
2023/03/25 06:35:53;;;;;;;;;;;;;;;23.06;52.11;96418.33;592822;239;68811;-61
2023/03/25 06:38:20;;;;;;;;;;;;;;;23.05;53.47;96411.36;589092;239;69505;-61
2023/03/25 06:40:53;;;;;;;;;;;;;;;23.04;51.66;96409.79;590708;239;44063;-61
2023/03/25 06:43:21;;;;;;;;;;;;;;;23.04;52.71;96409.79;591628;239;68930;-61
2023/03/25 06:46:08;;;;;;;;;;;;;;;23.04;52.61;96413.26;587309;241;48550;-61
2023/03/25 06:48:40;;;;;;;;;;;;;;;23.02;52.31;96410.07;583219;241;46341;-61
2023/03/25 06:51:08;;;;;;;;;;;;;;;23.02;51.70;96420.00;589582;239;68835;-61
2023/03/25 06:53:35;;;;;;;;;;;;;;;23.02;51.57;96417.33;593102;239;66687;-61
2023/03/25 06:56:03;;;;;;;;;;;;;;;23.02;52.38;96417.33;593065;239;63021;-61
2023/03/25 06:58:33;;;;;;;;;;;;;;;23.02;51.19;96420.00;592449;239;66456;-61
2023/03/25 07:01:04;;;;;;;;;;;;;;;23.02;52.15;96420.00;592167;239;66621;-61
2023/03/25 07:03:29;;;;;;;;;;;;;;;23.02;51.76;96417.33;594043;238;62958;-62
2023/03/25 07:05:57;;;;;;;;;;;;;;;23.03;52.20;96424.30;594861;238;67209;-63
2023/03/25 07:08:24;;;;;;;;;;;;;;;23.02;52.40;96425.36;594916;238;68499;-63
2023/03/25 07:10:52;;;;;;;;;;;;;;;23.03;52.80;96421.61;594843;238;63105;-63
2023/03/25 07:13:19;;;;;;;;;;;;;;;23.03;52.50;96418.93;594834;238;68834;-63
2023/03/25 07:15:47;;;;;;;;;;;;;;;23.03;52.66;96421.61;594803;238;68972;-63
2023/03/25 07:18:14;;;;;;;;;;;;;;;23.03;52.33;96426.97;594884;238;65126;-63
2023/03/25 07:20:42;;;;;;;;;;;;;;;23.03;52.77;96422.41;594714;238;68849;-62
2023/03/25 07:23:09;;;;;;;;;;;;;;;23.03;52.45;96419.72;594968;238;66690;-63
2023/03/25 07:25:37;;;;;;;;;;;;;;;23.04;51.07;96415.94;593731;237;63073;-63
2023/03/25 07:28:04;;;;;;;;;;;;;;;23.05;53.05;96422.08;594845;238;66611;-63
2023/03/25 07:30:32;;;;;;;;;;;;;;;23.05;52.03;96411.36;594085;238;68911;-63
2023/03/25 07:33:00;;;;;;;;;;;;;;;23.06;51.93;96412.97;593893;238;66356;-63
2023/03/25 07:35:27;;;;;;;;;;;;;;;23.06;51.19;96406.83;594408;238;68778;-63
2023/03/25 07:37:55;;;;;;;;;;;;;;;23.08;52.35;96407.30;594569;235;68707;-63
2023/03/25 07:40:22;;;;;;;;;;;;;;;23.08;50.06;96407.30;593797;238;65089;-63
2023/03/25 07:42:50;;;;;;;;;;;;;;;23.07;51.49;96403.83;594170;238;68571;-63
2023/03/25 07:45:22;;;;;;;;;;;;;;;23.09;51.64;96411.58;593633;238;49664;-63
2023/03/25 07:47:52;;;;;;;;;;;;;;;23.08;49.32;96407.30;594275;238;65051;-63
2023/03/25 07:50:20;;;;;;;;;;;;;;;23.09;49.86;96415.05;594062;238;66636;-63
2023/03/25 07:52:48;;;;;;;;;;;;;;;23.11;52.41;96404.83;593791;238;68904;-63
2023/03/25 07:55:16;;;;;;;;;;;;;;;23.12;51.35;96402.94;593780;238;65148;-62
2023/03/25 07:57:43;;;;;;;;;;;;;;;23.12;48.01;96398.37;593852;238;69063;-61
2023/03/25 08:00:11;;;;;;;;;;;;;;;23.11;47.86;96396.80;594089;238;68826;-62
2023/03/25 08:02:41;;;;;;;;;;;;;;;23.13;48.48;96396.48;592335;238;65071;-61
2023/03/25 08:05:09;;;;;;;;;;;;;;;23.14;49.06;96406.91;588368;241;68909;-61
2023/03/25 08:07:36;;;;;;;;;;;;;;;23.15;48.95;96402.34;588356;241;69494;-62
2023/03/25 08:10:04;;;;;;;;;;;;;;;23.15;48.78;96392.41;588422;241;62905;-62
2023/03/25 08:12:32;;;;;;;;;;;;;;;23.16;49.51;96391.33;588411;241;68735;-62
2023/03/25 08:14:59;;;;;;;;;;;;;;;23.16;49.99;96391.33;588441;241;68516;-62
2023/03/25 08:17:27;;;;;;;;;;;;;;;23.18;51.04;96396.37;588352;241;63006;-62
2023/03/25 08:19:56;;;;;;;;;;;;;;;23.18;48.09;96401.73;588423;241;68742;-62
2023/03/25 08:22:24;;;;;;;;;;;;;;;23.18;49.41;96393.70;588359;241;68675;-61
2023/03/25 08:24:52;;;;;;;;;;;;;;;23.20;49.16;96396.87;588401;241;65079;-62
2023/03/25 08:27:19;;;;;;;;;;;;;;;23.20;49.41;96388.83;588438;241;68881;-62
2023/03/25 08:29:56;;;;;;;;;;;;;;;23.21;50.43;96383.16;588373;241;66942;-62
2023/03/25 08:32:16;;;;;;;;;;;;;;;23.21;49.37;96377.80;588163;240;62927;-62
2023/03/25 08:34:44;;;;;;;;;;;;;;;23.22;49.14;96378.61;588404;241;66471;-62
2023/03/25 08:37:11;;;;;;;;;;;;;;;23.23;48.97;96372.14;588388;241;66548;-62
2023/03/25 08:39:40;;;;;;;;;;;;;;;23.24;50.41;96382.58;588454;241;65066;-62
2023/03/25 08:42:09;;;;;;;;;;;;;;;23.24;48.83;96374.54;588365;241;66646;-62
2023/03/25 08:44:36;;;;;;;;;;;;;;;23.26;50.31;96369.65;588375;241;68722;-62
2023/03/25 08:47:04;;;;;;;;;;;;;;;23.26;47.72;96368.86;588398;241;62976;-62
2023/03/25 08:49:31;;;;;;;;;;;;;;;23.27;47.37;96378.48;588410;241;68784;-62
2023/03/25 08:52:00;;;;;;;;;;;;;;;23.28;48.01;96376.62;588425;241;66734;-62
2023/03/25 08:54:29;;;;;;;;;;;;;;;23.30;49.56;96367.18;588393;241;65222;-62
2023/03/25 08:56:56;;;;;;;;;;;;;;;23.31;48.28;96367.97;588365;241;69008;-62
2023/03/25 08:59:24;;;;;;;;;;;;;;;23.32;48.90;96370.33;588385;241;66416;-62
2023/03/25 09:01:51;;;;;;;;;;;;;;;23.34;49.31;96375.41;588401;241;65140;-62
2023/03/25 09:04:19;;;;;;;;;;;;;;;23.34;48.31;96372.72;594237;238;69014;-62
2023/03/25 09:06:48;;;;;;;;;;;;;;;23.35;47.29;96367.05;594323;238;69007;-62
2023/03/25 09:09:16;;;;;;;;;;;;;;;23.36;48.19;96367.86;594271;238;62910;-62
2023/03/25 09:11:44;;;;;;;;;;;;;;;23.37;49.23;96366.75;594249;238;68933;-62
2023/03/25 09:14:12;;;;;;;;;;;;;;;23.38;47.02;96362.97;594281;238;68633;-62
2023/03/25 09:16:39;;;;;;;;;;;;;;;23.38;48.34;96365.65;594266;238;65180;-62
2023/03/25 09:19:08;;;;;;;;;;;;;;;23.40;47.46;96366.94;594345;238;66497;-62
2023/03/25 09:21:35;;;;;;;;;;;;;;;23.42;47.27;96369.33;594261;238;66591;-62
2023/03/25 09:24:03;;;;;;;;;;;;;;;23.43;46.20;96362.86;594330;238;63041;-62
2023/03/25 09:26:30;;;;;;;;;;;;;;;23.43;48.26;96354.81;594275;238;66469;-62
2023/03/25 09:28:59;;;;;;;;;;;;;;;23.44;48.40;96351.84;594272;238;68777;-62
2023/03/25 09:31:27;;;;;;;;;;;;;;;23.45;47.40;96347.27;594317;238;65149;-61
2023/03/25 09:33:55;;;;;;;;;;;;;;;23.47;48.45;96347.77;594288;238;69057;-61
2023/03/25 09:36:22;;;;;;;;;;;;;;;23.47;47.09;96347.77;594229;238;68763;-61
2023/03/25 09:38:50;;;;;;;;;;;;;;;23.48;46.36;96342.08;594268;238;65133;-61
2023/03/25 09:41:25;;;;;;;;;;;;;;;23.49;48.13;96349.05;594286;238;68860;-61
2023/03/25 09:43:55;;;;;;;;;;;;;;;23.50;46.80;96341.80;594024;238;68798;-61
2023/03/25 09:46:22;;;;;;;;;;;;;;;23.52;46.01;96346.84;594231;238;65112;-61
2023/03/25 09:48:51;;;;;;;;;;;;;;;23.53;49.60;96337.71;594302;238;68618;-61
2023/03/25 09:51:23;;;;;;;;;;;;;;;23.53;49.07;96333.14;594258;238;68278;-62
2023/03/25 09:53:52;;;;;;;;;;;;;;;23.54;48.98;96337.39;594303;238;65063;-63
2023/03/25 09:56:21;;;;;;;;;;;;;;;23.54;48.79;96333.92;594139;238;68306;-63
2023/03/25 09:58:50;;;;;;;;;;;;;;;23.56;46.89;96339.78;594019;238;68512;-63
2023/03/25 10:01:25;;;;;;;;;;;;;;;23.56;48.78;96316.44;594291;238;65068;-63
2023/03/25 10:03:54;;;;;;;;;;;;;;;23.57;50.14;96320.72;589437;238;66580;-63
2023/03/25 10:06:25;;;;;;;;;;;;;;;23.58;48.96;96329.55;588329;241;68481;-63
2023/03/25 10:09:03;;;;;;;;;;;;;;;23.58;48.92;96330.34;588154;241;65151;-63
2023/03/25 10:11:32;;;;;;;;;;;;;;;23.59;47.31;96334.59;588127;241;68480;-63
2023/03/25 10:14:01;;;;;;;;;;;;;;;23.59;46.00;96334.59;588312;241;68789;-63
2023/03/25 10:16:49;;;;;;;;;;;;;;;23.62;47.62;96336.67;589072;240;64817;-63
2023/03/25 10:19:34;;;;;;;;;;;;;;;23.61;49.23;96353.88;588383;241;68864;-63
2023/03/25 10:22:06;;;;;;;;;;;;;;;23.63;47.40;96335.59;588402;241;69024;-63
2023/03/25 10:24:47;;;;;;;;;;;;;;;23.64;49.15;96339.84;588345;241;70919;-63
2023/03/25 10:27:16;;;;;;;;;;;;;;;23.64;48.62;96331.80;588408;241;68812;-63
2023/03/25 10:29:45;;;;;;;;;;;;;;;23.65;47.24;96325.36;588435;238;66585;-63
2023/03/25 10:32:17;;;;;;;;;;;;;;;23.66;47.20;96332.30;588365;241;63711;-63
2023/03/25 10:34:48;;;;;;;;;;;;;;;23.67;45.83;96325.82;588436;241;68914;-63
2023/03/25 10:37:27;;;;;;;;;;;;;;;23.68;44.23;96321.24;588206;240;66410;-63
2023/03/25 10:39:57;;;;;;;;;;;;;;;23.70;47.49;96319.84;588411;238;65095;-63
2023/03/25 10:42:28;;;;;;;;;;;;;;;23.71;47.98;96318.01;588439;241;68478;-63
2023/03/25 10:44:56;;;;;;;;;;;;;;;23.72;48.02;96313.43;588326;241;68742;-63
2023/03/25 10:47:25;;;;;;;;;;;;;;;23.72;47.55;96318.80;588441;241;65047;-63
2023/03/25 10:49:54;;;;;;;;;;;;;;;23.72;48.21;96319.58;588393;241;69050;-63
2023/03/25 10:52:21;;;;;;;;;;;;;;;23.72;48.91;96316.90;588424;241;66568;-63
2023/03/25 10:54:50;;;;;;;;;;;;;;;23.72;47.30;96305.38;588419;241;63823;-63
2023/03/25 10:57:20;;;;;;;;;;;;;;;23.74;46.17;96311.24;588417;241;68783;-63
2023/03/25 10:59:50;;;;;;;;;;;;;;;23.74;45.63;96320.08;588293;240;66691;-63
2023/03/25 11:02:24;;;;;;;;;;;;;;;23.74;45.91;96309.34;588097;239;65171;-63
2023/03/25 11:04:53;;;;;;;;;;;;;;;23.75;46.73;96305.55;588411;241;68792;-63
2023/03/25 11:07:23;;;;;;;;;;;;;;;23.75;47.94;96299.41;588358;239;66633;-62
2023/03/25 11:09:51;;;;;;;;;;;;;;;23.76;47.20;96299.08;588392;241;65024;-63
2023/03/25 11:12:19;;;;;;;;;;;;;;;23.76;47.42;96292.92;588407;241;66467;-63
2023/03/25 11:14:48;;;;;;;;;;;;;;;23.77;49.69;96295.31;588434;241;68766;-63
2023/03/25 11:17:20;;;;;;;;;;;;;;;23.77;47.73;96289.16;588247;238;65113;-63
2023/03/25 11:19:59;;;;;;;;;;;;;;;23.78;47.36;96290.73;588424;241;69527;-63
2023/03/25 11:22:28;;;;;;;;;;;;;;;23.77;47.48;96284.59;588408;241;68735;-63
2023/03/25 11:25:03;;;;;;;;;;;;;;;23.78;46.80;96283.47;588422;241;65089;-63
2023/03/25 11:27:30;;;;;;;;;;;;;;;23.77;46.28;96284.59;588419;241;66880;-63
2023/03/25 11:30:03;;;;;;;;;;;;;;;23.79;47.31;96286.95;588463;241;68536;-63
2023/03/25 11:32:34;;;;;;;;;;;;;;;23.79;46.38;96286.95;588212;241;65056;-63
2023/03/25 11:35:03;;;;;;;;;;;;;;;23.79;47.43;96289.63;588219;241;68935;-64
2023/03/25 11:37:33;;;;;;;;;;;;;;;23.79;46.36;96287.77;583286;241;67872;-64
2023/03/25 11:40:02;;;;;;;;;;;;;;;23.80;47.48;96283.97;583128;241;64892;-63
2023/03/25 11:42:34;;;;;;;;;;;;;;;23.80;44.63;96278.60;588469;241;68809;-63
2023/03/25 11:45:02;;;;;;;;;;;;;;;23.81;45.32;96263.29;588196;241;66679;-63
2023/03/25 11:47:31;;;;;;;;;;;;;;;23.80;45.29;96267.88;588426;241;65087;-63
2023/03/25 11:50:00;;;;;;;;;;;;;;;23.80;47.52;96272.45;588391;241;68825;-63
2023/03/25 11:52:29;;;;;;;;;;;;;;;23.81;47.20;96258.71;588419;241;68850;-63
2023/03/25 11:54:57;;;;;;;;;;;;;;;23.81;46.29;96265.97;588259;241;65151;-63
2023/03/25 11:57:29;;;;;;;;;;;;;;;23.81;46.36;96265.97;588456;241;68746;-63
2023/03/25 12:00:11;;;;;;;;;;;;;;;23.81;46.57;96249.88;588399;241;68799;-63
2023/03/25 12:02:37;;;;;;;;;;;;;;;23.81;46.06;96252.56;587609;239;42068;-63
2023/03/25 12:05:06;;;;;;;;;;;;;;;23.80;45.72;96241.04;588426;241;69120;-63
2023/03/25 12:07:45;;;;;;;;;;;;;;;23.81;46.04;96247.98;588285;240;68778;-63
2023/03/25 12:10:16;;;;;;;;;;;;;;;23.81;46.05;96242.61;588389;241;65032;-64
2023/03/25 12:12:49;;;;;;;;;;;;;;;23.81;47.96;96234.56;588463;241;66715;-63
2023/03/25 12:15:20;;;;;;;;;;;;;;;23.81;46.19;96239.14;588371;241;68554;-64
2023/03/25 12:17:52;;;;;;;;;;;;;;;23.81;46.84;96239.93;588199;241;63853;-63
2023/03/25 12:20:24;;;;;;;;;;;;;;;23.82;45.89;96238.06;588152;241;68690;-63
2023/03/25 12:22:54;;;;;;;;;;;;;;;23.82;45.75;96238.84;583484;241;66774;-63
2023/03/25 12:25:25;;;;;;;;;;;;;;;23.82;45.88;96235.37;588396;241;65084;-63
2023/03/25 12:27:54;;;;;;;;;;;;;;;23.81;45.60;96233.78;588422;241;66625;-62
2023/03/25 12:30:38;;;;;;;;;;;;;;;23.81;44.43;96231.09;588387;241;68814;-63
2023/03/25 12:33:16;;;;;;;;;;;;;;;23.81;46.94;96231.09;588411;241;65053;-61
2023/03/25 12:35:46;;;;;;;;;;;;;;;23.81;46.20;96226.52;588206;241;66771;-63
2023/03/25 12:38:27;;;;;;;;;;;;;;;23.80;47.00;96224.16;588401;241;68728;-62
2023/03/25 12:41:05;;;;;;;;;;;;;;;23.80;43.60;96224.16;588415;241;65063;-62
2023/03/25 12:43:40;;;;;;;;;;;;;;;23.80;46.38;96221.47;588207;241;68842;-63
2023/03/25 12:46:27;;;;;;;;;;;;;;;23.80;47.07;96219.58;588185;241;68463;-63
2023/03/25 12:48:56;;;;;;;;;;;;;;;23.80;46.53;96211.53;588418;241;65260;-63
2023/03/25 12:51:29;;;;;;;;;;;;;;;23.79;46.45;96206.45;588401;241;68869;-63
2023/03/25 12:53:58;;;;;;;;;;;;;;;23.79;45.94;96198.41;588377;241;67046;-63
2023/03/25 12:56:30;;;;;;;;;;;;;;;23.80;45.67;96202.69;588268;241;65077;-63
2023/03/25 12:59:01;;;;;;;;;;;;;;;23.78;46.92;96186.89;587655;241;66746;-63
2023/03/25 13:01:36;;;;;;;;;;;;;;;23.78;45.50;96194.16;591042;240;68777;-63
2023/03/25 13:04:20;;;;;;;;;;;;;;;23.80;44.25;96194.64;594245;238;65096;-63
2023/03/25 13:06:49;;;;;;;;;;;;;;;23.80;45.96;96189.28;593907;238;66622;-63
2023/03/25 13:09:24;;;;;;;;;;;;;;;23.78;45.02;96188.79;593890;238;66617;-63
2023/03/25 13:11:53;;;;;;;;;;;;;;;23.79;46.12;96188.49;594314;238;65134;-63
2023/03/25 13:14:25;;;;;;;;;;;;;;;23.80;46.88;96191.96;594251;238;68513;-63
2023/03/25 13:16:54;;;;;;;;;;;;;;;23.78;45.79;96186.89;594268;238;74201;-63
2023/03/25 13:19:23;;;;;;;;;;;;;;;23.78;45.48;96183.42;594268;238;65160;-63
2023/03/25 13:21:52;;;;;;;;;;;;;;;23.78;48.03;96189.57;594208;238;74754;-62
2023/03/25 13:24:21;;;;;;;;;;;;;;;23.77;46.00;96182.64;594262;238;68756;-61